sensor_id;sensor_type;location;lat;lon;timestamp;pressure;altitude;pressure_sealevel;temperature;humidity
34742;BME280;20968;42.696;23.360;2022-10-17T00:00:57;96552.81;;;12.87;58.84
34742;BME280;20968;42.696;23.360;2022-10-17T00:03:23;96547.41;;;12.74;58.81
34742;BME280;20968;42.696;23.360;2022-10-17T00:05:48;96539.91;;;12.75;59.18
34742;BME280;20968;42.696;23.360;2022-10-17T00:08:16;96540.66;;;12.75;58.60
34742;BME280;20968;42.696;23.360;2022-10-17T00:10:42;96538.53;;;12.70;59.42
34742;BME280;20968;42.696;23.360;2022-10-17T00:13:09;96545.28;;;12.69;59.41
34742;BME280;20968;42.696;23.360;2022-10-17T00:15:35;96543.88;;;12.65;59.52
34742;BME280;20968;42.696;23.360;2022-10-17T00:18:01;96545.09;;;12.64;59.32
34742;BME280;20968;42.696;23.360;2022-10-17T00:20:27;96552.16;;;12.65;58.74
34742;BME280;20968;42.696;23.360;2022-10-17T00:22:55;96558.44;;;12.65;59.08
34742;BME280;20968;42.696;23.360;2022-10-17T00:25:20;96548.47;;;12.59;59.34
34742;BME280;20968;42.696;23.360;2022-10-17T00:27:46;96552.59;;;12.54;59.17
34742;BME280;20968;42.696;23.360;2022-10-17T00:30:14;96546.28;;;12.54;59.12
34742;BME280;20968;42.696;23.360;2022-10-17T00:32:41;96549.53;;;12.52;59.57
34742;BME280;20968;42.696;23.360;2022-10-17T00:35:07;96546.44;;;12.50;59.60
34742;BME280;20968;42.696;23.360;2022-10-17T00:37:33;96546.75;;;12.52;60.01
34742;BME280;20968;42.696;23.360;2022-10-17T00:39:58;96553.81;;;12.53;59.27
34742;BME280;20968;42.696;23.360;2022-10-17T00:42:25;96555.06;;;12.52;59.65
34742;BME280;20968;42.696;23.360;2022-10-17T00:45:09;96562.59;;;12.52;59.95
34742;BME280;20968;42.696;23.360;2022-10-17T00:47:37;96546.28;;;12.45;59.93
34742;BME280;20968;42.696;23.360;2022-10-17T00:50:04;96557.47;;;12.41;58.92
34742;BME280;20968;42.696;23.360;2022-10-17T00:52:31;96546.41;;;12.33;58.37
34742;BME280;20968;42.696;23.360;2022-10-17T00:55:06;96549.31;;;12.38;58.14
34742;BME280;20968;42.696;23.360;2022-10-17T00:57:33;96551.66;;;12.40;58.98
34742;BME280;20968;42.696;23.360;2022-10-17T01:00:02;96545.81;;;12.38;58.41
34742;BME280;20968;42.696;23.360;2022-10-17T01:02:28;96542.53;;;12.30;59.74
34742;BME280;20968;42.696;23.360;2022-10-17T01:04:55;96553.00;;;12.35;59.74
34742;BME280;20968;42.696;23.360;2022-10-17T01:07:24;96564.25;;;12.41;58.92
34742;BME280;20968;42.696;23.360;2022-10-17T01:09:50;96545.78;;;12.29;59.50
34742;BME280;20968;42.696;23.360;2022-10-17T01:12:22;96561.31;;;12.35;59.33
34742;BME280;20968;42.696;23.360;2022-10-17T01:15:13;96559.75;;;12.34;59.12
34742;BME280;20968;42.696;23.360;2022-10-17T01:25:51;96552.00;;;12.11;58.12
34742;BME280;20968;42.696;23.360;2022-10-17T01:33:47;96554.66;;;11.93;58.38
34742;BME280;20968;42.696;23.360;2022-10-17T01:42:14;96562.19;;;11.93;58.84
34742;BME280;20968;42.696;23.360;2022-10-17T01:47:10;96566.59;;;11.81;59.58
34742;BME280;20968;42.696;23.360;2022-10-17T01:49:40;96563.75;;;11.72;59.56
34742;BME280;20968;42.696;23.360;2022-10-17T01:52:12;96558.91;;;11.76;59.34
34742;BME280;20968;42.696;23.360;2022-10-17T01:54:41;96563.31;;;11.74;59.36
34742;BME280;20968;42.696;23.360;2022-10-17T01:57:17;96558.91;;;11.76;60.05
34742;BME280;20968;42.696;23.360;2022-10-17T01:59:46;96567.75;;;11.71;59.30
34742;BME280;20968;42.696;23.360;2022-10-17T02:02:14;96566.84;;;11.74;59.10
34742;BME280;20968;42.696;23.360;2022-10-17T02:04:41;96570.06;;;11.73;59.57
34742;BME280;20968;42.696;23.360;2022-10-17T02:07:09;96566.78;;;11.65;59.83
34742;BME280;20968;42.696;23.360;2022-10-17T02:09:35;96570.31;;;11.66;59.86
34742;BME280;20968;42.696;23.360;2022-10-17T02:20:23;96579.78;;;11.56;60.60
34742;BME280;20968;42.696;23.360;2022-10-17T02:23:17;96575.59;;;11.52;61.04
34742;BME280;20968;42.696;23.360;2022-10-17T02:28:36;96578.34;;;11.52;60.70
34742;BME280;20968;42.696;23.360;2022-10-17T02:31:18;96584.50;;;11.56;60.66
34742;BME280;20968;42.696;23.360;2022-10-17T02:33:59;96584.19;;;11.54;60.52
34742;BME280;20968;42.696;23.360;2022-10-17T02:36:33;96587.25;;;11.56;60.74
34742;BME280;20968;42.696;23.360;2022-10-17T02:39:02;96587.81;;;11.51;60.28
34742;BME280;20968;42.696;23.360;2022-10-17T02:41:30;96589.38;;;11.52;60.45
34742;BME280;20968;42.696;23.360;2022-10-17T02:43:55;96583.50;;;11.50;60.35
34742;BME280;20968;42.696;23.360;2022-10-17T02:46:23;96594.34;;;11.44;59.53
34742;BME280;20968;42.696;23.360;2022-10-17T02:49:01;96597.66;;;11.52;59.41
34742;BME280;20968;42.696;23.360;2022-10-17T02:54:18;96608.00;;;11.48;60.38
34742;BME280;20968;42.696;23.360;2022-10-17T02:56:52;96619.81;;;11.48;60.15
34742;BME280;20968;42.696;23.360;2022-10-17T02:59:20;96608.66;;;11.30;60.64
34742;BME280;20968;42.696;23.360;2022-10-17T03:01:48;96613.53;;;11.26;60.10
34742;BME280;20968;42.696;23.360;2022-10-17T03:04:16;96619.56;;;11.34;60.53
34742;BME280;20968;42.696;23.360;2022-10-17T03:06:42;96618.59;;;11.28;60.00
34742;BME280;20968;42.696;23.360;2022-10-17T03:09:09;96616.72;;;11.25;60.01
34742;BME280;20968;42.696;23.360;2022-10-17T03:11:35;96632.50;;;11.24;60.47
34742;BME280;20968;42.696;23.360;2022-10-17T03:14:00;96619.97;;;11.11;60.41
34742;BME280;20968;42.696;23.360;2022-10-17T03:16:26;96629.91;;;11.08;60.35
34742;BME280;20968;42.696;23.360;2022-10-17T03:18:51;96626.50;;;11.04;60.17
34742;BME280;20968;42.696;23.360;2022-10-17T03:21:17;96616.56;;;11.07;59.81
34742;BME280;20968;42.696;23.360;2022-10-17T03:23:42;96631.00;;;11.11;60.04
34742;BME280;20968;42.696;23.360;2022-10-17T03:26:08;96618.25;;;11.04;60.18
34742;BME280;20968;42.696;23.360;2022-10-17T03:28:34;96633.75;;;11.11;60.81
34742;BME280;20968;42.696;23.360;2022-10-17T03:31:06;96622.38;;;11.09;60.37
34742;BME280;20968;42.696;23.360;2022-10-17T03:33:31;96624.50;;;11.05;60.40
34742;BME280;20968;42.696;23.360;2022-10-17T03:35:57;96618.34;;;11.01;59.96
34742;BME280;20968;42.696;23.360;2022-10-17T03:38:22;96623.75;;;11.04;60.93
34742;BME280;20968;42.696;23.360;2022-10-17T03:40:54;96623.97;;;10.97;60.63
34742;BME280;20968;42.696;23.360;2022-10-17T03:43:20;96622.13;;;10.94;60.72
34742;BME280;20968;42.696;23.360;2022-10-17T03:45:45;96636.88;;;11.00;60.69
34742;BME280;20968;42.696;23.360;2022-10-17T03:48:11;96633.91;;;10.95;60.73
34742;BME280;20968;42.696;23.360;2022-10-17T03:50:36;96627.63;;;10.94;60.55
34742;BME280;20968;42.696;23.360;2022-10-17T03:53:01;96634.69;;;10.95;60.99
34742;BME280;20968;42.696;23.360;2022-10-17T03:55:27;96635.69;;;10.89;60.66
34742;BME280;20968;42.696;23.360;2022-10-17T03:57:52;96642.28;;;10.91;60.51
34742;BME280;20968;42.696;23.360;2022-10-17T04:00:18;96646.13;;;10.94;59.97
34742;BME280;20968;42.696;23.360;2022-10-17T04:02:43;96636.34;;;10.93;59.82
34742;BME280;20968;42.696;23.360;2022-10-17T04:05:09;96645.25;;;10.97;59.94
34742;BME280;20968;42.696;23.360;2022-10-17T04:07:34;96651.22;;;10.95;59.72
34742;BME280;20968;42.696;23.360;2022-10-17T04:10:02;96649.22;;;10.96;60.58
34742;BME280;20968;42.696;23.360;2022-10-17T04:12:27;96649.91;;;10.87;60.11
34742;BME280;20968;42.696;23.360;2022-10-17T04:14:53;96652.22;;;10.89;59.80
34742;BME280;20968;42.696;23.360;2022-10-17T04:17:19;96658.19;;;10.87;59.96
34742;BME280;20968;42.696;23.360;2022-10-17T04:19:44;96661.16;;;10.81;60.07
34742;BME280;20968;42.696;23.360;2022-10-17T04:22:09;96649.13;;;10.75;60.51
34742;BME280;20968;42.696;23.360;2022-10-17T04:24:35;96653.13;;;10.74;60.14
34742;BME280;20968;42.696;23.360;2022-10-17T04:27:00;96665.59;;;10.78;60.79
34742;BME280;20968;42.696;23.360;2022-10-17T04:29:26;96654.00;;;10.71;60.21
34742;BME280;20968;42.696;23.360;2022-10-17T04:31:51;96654.47;;;10.69;60.34
34742;BME280;20968;42.696;23.360;2022-10-17T04:34:17;96653.38;;;10.67;60.27
34742;BME280;20968;42.696;23.360;2022-10-17T04:36:42;96667.56;;;10.65;60.29
34742;BME280;20968;42.696;23.360;2022-10-17T04:39:08;96663.47;;;10.70;60.60
34742;BME280;20968;42.696;23.360;2022-10-17T04:41:33;96672.53;;;10.70;60.28
34742;BME280;20968;42.696;23.360;2022-10-17T04:43:59;96664.16;;;10.61;60.32
34742;BME280;20968;42.696;23.360;2022-10-17T04:46:24;96663.06;;;10.59;60.43
34742;BME280;20968;42.696;23.360;2022-10-17T04:48:50;96671.63;;;10.61;60.79
34742;BME280;20968;42.696;23.360;2022-10-17T04:51:17;96678.78;;;10.71;69.56
34742;BME280;20968;42.696;23.360;2022-10-17T04:53:43;96677.63;;;11.18;76.71
34742;BME280;20968;42.696;23.360;2022-10-17T04:56:17;96677.28;;;11.62;74.39
34742;BME280;20968;42.696;23.360;2022-10-17T04:58:44;96678.25;;;12.11;74.95
34742;BME280;20968;42.696;23.360;2022-10-17T05:01:14;96674.22;;;12.33;68.17
34742;BME280;20968;42.696;23.360;2022-10-17T05:03:40;96683.09;;;12.28;63.83
34742;BME280;20968;42.696;23.360;2022-10-17T05:06:07;96678.41;;;12.16;60.84
34742;BME280;20968;42.696;23.360;2022-10-17T05:08:33;96667.09;;;11.93;59.17
34742;BME280;20968;42.696;23.360;2022-10-17T05:10:59;96691.09;;;11.83;58.32
34742;BME280;20968;42.696;23.360;2022-10-17T05:13:24;96691.34;;;11.76;57.93
34742;BME280;20968;42.696;23.360;2022-10-17T05:15:50;96689.41;;;11.64;58.18
34742;BME280;20968;42.696;23.360;2022-10-17T05:18:15;96689.13;;;11.50;58.27
34742;BME280;20968;42.696;23.360;2022-10-17T05:20:41;96695.63;;;11.44;57.71
34742;BME280;20968;42.696;23.360;2022-10-17T05:23:06;96697.97;;;11.33;57.60
34742;BME280;20968;42.696;23.360;2022-10-17T05:25:32;96697.09;;;11.36;57.60
34742;BME280;20968;42.696;23.360;2022-10-17T05:27:57;96706.66;;;11.44;58.05
34742;BME280;20968;42.696;23.360;2022-10-17T05:30:23;96699.59;;;11.43;57.62
34742;BME280;20968;42.696;23.360;2022-10-17T05:32:52;96708.09;;;11.48;57.98
34742;BME280;20968;42.696;23.360;2022-10-17T05:35:18;96709.22;;;11.38;59.17
34742;BME280;20968;42.696;23.360;2022-10-17T05:37:44;96706.81;;;11.28;58.86
34742;BME280;20968;42.696;23.360;2022-10-17T05:40:10;96728.13;;;11.27;59.14
34742;BME280;20968;42.696;23.360;2022-10-17T05:42:50;96707.34;;;11.35;58.88
34742;BME280;20968;42.696;23.360;2022-10-17T05:45:16;96712.47;;;11.24;59.34
34742;BME280;20968;42.696;23.360;2022-10-17T05:47:41;96721.91;;;11.36;58.87
34742;BME280;20968;42.696;23.360;2022-10-17T05:50:07;96724.09;;;11.41;58.88
34742;BME280;20968;42.696;23.360;2022-10-17T05:52:33;96732.38;;;11.53;58.95
34742;BME280;20968;42.696;23.360;2022-10-17T05:54:59;96732.94;;;11.36;58.99
34742;BME280;20968;42.696;23.360;2022-10-17T05:57:25;96742.75;;;11.49;59.41
34742;BME280;20968;42.696;23.360;2022-10-17T05:59:51;96736.34;;;11.52;58.34
34742;BME280;20968;42.696;23.360;2022-10-17T06:02:16;96732.72;;;11.43;59.02
34742;BME280;20968;42.696;23.360;2022-10-17T06:04:41;96745.94;;;11.48;59.01
34742;BME280;20968;42.696;23.360;2022-10-17T06:07:13;96739.66;;;11.47;59.44
34742;BME280;20968;42.696;23.360;2022-10-17T06:09:39;96735.69;;;11.48;59.45
34742;BME280;20968;42.696;23.360;2022-10-17T06:12:05;96747.47;;;11.49;58.82
34742;BME280;20968;42.696;23.360;2022-10-17T06:14:30;96738.56;;;11.57;59.45
34742;BME280;20968;42.696;23.360;2022-10-17T06:16:55;96747.13;;;11.59;59.59
34742;BME280;20968;42.696;23.360;2022-10-17T06:19:21;96735.97;;;11.63;59.33
34742;BME280;20968;42.696;23.360;2022-10-17T06:21:46;96755.38;;;11.71;58.73
34742;BME280;20968;42.696;23.360;2022-10-17T06:24:12;96758.56;;;11.82;58.64
34742;BME280;20968;42.696;23.360;2022-10-17T06:26:37;96760.72;;;11.87;58.44
34742;BME280;20968;42.696;23.360;2022-10-17T06:29:02;96766.97;;;12.00;57.69
34742;BME280;20968;42.696;23.360;2022-10-17T06:31:28;96771.03;;;12.08;58.89
34742;BME280;20968;42.696;23.360;2022-10-17T06:33:53;96773.66;;;12.12;58.92
34742;BME280;20968;42.696;23.360;2022-10-17T06:36:19;96777.66;;;12.11;58.51
34742;BME280;20968;42.696;23.360;2022-10-17T06:38:44;96756.53;;;12.17;57.72
34742;BME280;20968;42.696;23.360;2022-10-17T06:41:12;96765.56;;;12.17;56.79
34742;BME280;20968;42.696;23.360;2022-10-17T06:43:40;96763.19;;;12.07;57.57
34742;BME280;20968;42.696;23.360;2022-10-17T06:46:07;96765.25;;;11.94;57.76
34742;BME280;20968;42.696;23.360;2022-10-17T06:48:33;96770.59;;;12.10;57.94
34742;BME280;20968;42.696;23.360;2022-10-17T06:51:03;96774.50;;;12.21;57.28
34742;BME280;20968;42.696;23.360;2022-10-17T06:53:31;96783.31;;;12.50;58.05
34742;BME280;20968;42.696;23.360;2022-10-17T06:55:57;96774.16;;;12.62;57.85
34742;BME280;20968;42.696;23.360;2022-10-17T06:58:28;96769.75;;;12.73;56.58
34742;BME280;20968;42.696;23.360;2022-10-17T07:01:02;96770.59;;;12.83;56.65
34742;BME280;20968;42.696;23.360;2022-10-17T07:03:28;96779.00;;;13.01;57.56
34742;BME280;20968;42.696;23.360;2022-10-17T07:05:54;96770.13;;;13.06;56.15
34742;BME280;20968;42.696;23.360;2022-10-17T07:08:20;96762.25;;;13.04;55.05
34742;BME280;20968;42.696;23.360;2022-10-17T07:10:46;96774.09;;;13.05;55.97
34742;BME280;20968;42.696;23.360;2022-10-17T07:13:12;96764.72;;;13.02;55.15
34742;BME280;20968;42.696;23.360;2022-10-17T07:15:38;96772.56;;;13.04;54.72
34742;BME280;20968;42.696;23.360;2022-10-17T07:18:04;96767.97;;;13.10;55.61
34742;BME280;20968;42.696;23.360;2022-10-17T07:20:29;96768.34;;;13.29;54.69
34742;BME280;20968;42.696;23.360;2022-10-17T07:22:55;96763.91;;;13.32;55.71
34742;BME280;20968;42.696;23.360;2022-10-17T07:25:21;96769.91;;;13.39;54.89
34742;BME280;20968;42.696;23.360;2022-10-17T07:27:50;96776.09;;;13.43;55.29
34742;BME280;20968;42.696;23.360;2022-10-17T07:30:16;96787.22;;;14.06;70.93
34742;BME280;20968;42.696;23.360;2022-10-17T07:32:42;96774.28;;;14.66;66.59
34742;BME280;20968;42.696;23.360;2022-10-17T07:35:08;96777.63;;;14.87;56.79
34742;BME280;20968;42.696;23.360;2022-10-17T07:37:33;96777.59;;;15.38;60.90
34742;BME280;20968;42.696;23.360;2022-10-17T07:39:59;96773.25;;;15.46;52.14
34742;BME280;20968;42.696;23.360;2022-10-17T07:42:24;96775.81;;;15.17;51.52
34742;BME280;20968;42.696;23.360;2022-10-17T07:44:50;96786.16;;;15.16;52.39
34742;BME280;20968;42.696;23.360;2022-10-17T07:47:15;96774.78;;;15.05;52.14
34742;BME280;20968;42.696;23.360;2022-10-17T07:49:41;96773.84;;;15.08;50.93
34742;BME280;20968;42.696;23.360;2022-10-17T07:52:13;96782.91;;;15.18;50.92
34742;BME280;20968;42.696;23.360;2022-10-17T07:54:39;96785.38;;;15.25;52.22
34742;BME280;20968;42.696;23.360;2022-10-17T07:57:05;96771.97;;;15.14;51.06
34742;BME280;20968;42.696;23.360;2022-10-17T07:59:32;96766.22;;;14.85;50.71
34742;BME280;20968;42.696;23.360;2022-10-17T08:02:01;96782.91;;;14.59;51.88
34742;BME280;20968;42.696;23.360;2022-10-17T08:04:34;96781.09;;;14.47;52.04
34742;BME280;20968;42.696;23.360;2022-10-17T08:07:00;96778.97;;;14.33;52.62
34742;BME280;20968;42.696;23.360;2022-10-17T08:09:26;96766.34;;;14.41;51.93
34742;BME280;20968;42.696;23.360;2022-10-17T08:11:51;96770.66;;;14.42;52.33
34742;BME280;20968;42.696;23.360;2022-10-17T08:14:16;96773.69;;;14.44;52.75
34742;BME280;20968;42.696;23.360;2022-10-17T08:16:42;96769.69;;;14.54;52.68
34742;BME280;20968;42.696;23.360;2022-10-17T08:19:08;96764.56;;;14.70;52.27
34742;BME280;20968;42.696;23.360;2022-10-17T08:21:35;96758.13;;;14.64;51.30
34742;BME280;20968;42.696;23.360;2022-10-17T08:24:01;96756.28;;;14.61;52.25
34742;BME280;20968;42.696;23.360;2022-10-17T08:26:28;96757.78;;;14.71;52.98
34742;BME280;20968;42.696;23.360;2022-10-17T08:28:54;96759.44;;;14.95;52.24
34742;BME280;20968;42.696;23.360;2022-10-17T08:31:20;96757.00;;;15.21;51.87
34742;BME280;20968;42.696;23.360;2022-10-17T08:33:47;96761.75;;;15.29;52.21
34742;BME280;20968;42.696;23.360;2022-10-17T08:36:16;96759.53;;;15.42;51.99
34742;BME280;20968;42.696;23.360;2022-10-17T08:38:42;96765.47;;;15.58;51.08
34742;BME280;20968;42.696;23.360;2022-10-17T08:47:01;96760.84;;;16.02;49.73
34742;BME280;20968;42.696;23.360;2022-10-17T08:52:05;96763.44;;;16.06;48.38
34742;BME280;20968;42.696;23.360;2022-10-17T08:54:44;96754.78;;;16.27;49.12
34742;BME280;20968;42.696;23.360;2022-10-17T08:57:15;96754.56;;;16.39;48.19
34742;BME280;20968;42.696;23.360;2022-10-17T08:59:42;96766.47;;;16.54;47.41
34742;BME280;20968;42.696;23.360;2022-10-17T09:07:46;96750.88;;;17.06;45.11
34742;BME280;20968;42.696;23.360;2022-10-17T09:10:24;96763.63;;;17.41;43.93
34742;BME280;20968;42.696;23.360;2022-10-17T09:15:40;96764.41;;;17.76;42.50
34742;BME280;20968;42.696;23.360;2022-10-17T09:20:43;96753.94;;;18.10;41.26
34742;BME280;20968;42.696;23.360;2022-10-17T09:23:48;96765.25;;;18.41;41.93
34742;BME280;20968;42.696;23.360;2022-10-17T09:26:28;96750.13;;;18.08;41.24
34742;BME280;20968;42.696;23.360;2022-10-17T09:29:14;96760.41;;;18.42;42.48
34742;BME280;20968;42.696;23.360;2022-10-17T09:31:46;96749.94;;;18.82;41.02
34742;BME280;20968;42.696;23.360;2022-10-17T09:34:13;96748.47;;;18.86;41.06
34742;BME280;20968;42.696;23.360;2022-10-17T09:36:40;96737.59;;;19.19;40.05
34742;BME280;20968;42.696;23.360;2022-10-17T09:39:12;96740.38;;;19.55;40.39
34742;BME280;20968;42.696;23.360;2022-10-17T09:41:42;96746.06;;;19.66;37.65
34742;BME280;20968;42.696;23.360;2022-10-17T09:44:16;96739.50;;;19.75;36.50
34742;BME280;20968;42.696;23.360;2022-10-17T09:49:30;96747.16;;;19.85;35.53
34742;BME280;20968;42.696;23.360;2022-10-17T09:51:56;96743.38;;;19.94;35.06
34742;BME280;20968;42.696;23.360;2022-10-17T09:54:26;96738.69;;;20.16;34.72
34742;BME280;20968;42.696;23.360;2022-10-17T09:57:05;96738.94;;;20.13;35.04
34742;BME280;20968;42.696;23.360;2022-10-17T09:59:34;96731.28;;;20.02;35.65
34742;BME280;20968;42.696;23.360;2022-10-17T10:05:02;96724.28;;;20.45;36.12
34742;BME280;20968;42.696;23.360;2022-10-17T10:07:31;96718.78;;;20.89;39.76
34742;BME280;20968;42.696;23.360;2022-10-17T10:09:58;96714.47;;;21.10;32.54
34742;BME280;20968;42.696;23.360;2022-10-17T10:12:30;96720.34;;;21.28;30.27
34742;BME280;20968;42.696;23.360;2022-10-17T10:14:55;96710.34;;;21.43;30.18
34742;BME280;20968;42.696;23.360;2022-10-17T10:17:38;96718.28;;;21.61;29.60
34742;BME280;20968;42.696;23.360;2022-10-17T10:20:30;96708.84;;;21.59;29.83
34742;BME280;20968;42.696;23.360;2022-10-17T10:23:10;96716.41;;;21.91;30.26
34742;BME280;20968;42.696;23.360;2022-10-17T10:28:55;96702.81;;;22.06;28.57
34742;BME280;20968;42.696;23.360;2022-10-17T10:31:27;96703.97;;;22.38;27.93
34742;BME280;20968;42.696;23.360;2022-10-17T10:36:51;96700.72;;;22.17;27.13
34742;BME280;20968;42.696;23.360;2022-10-17T10:39:40;96691.50;;;22.28;27.69
34742;BME280;20968;42.696;23.360;2022-10-17T10:44:44;96686.13;;;22.35;27.90
34742;BME280;20968;42.696;23.360;2022-10-17T10:47:25;96692.78;;;22.73;29.95
34742;BME280;20968;42.696;23.360;2022-10-17T10:52:45;96676.75;;;23.32;28.00
34742;BME280;20968;42.696;23.360;2022-10-17T10:55:59;96687.63;;;23.17;26.43
34742;BME280;20968;42.696;23.360;2022-10-17T10:58:19;96679.34;;;23.53;27.01
34742;BME280;20968;42.696;23.360;2022-10-17T11:00:48;96667.88;;;23.70;27.25
34742;BME280;20968;42.696;23.360;2022-10-17T11:03:27;96672.44;;;23.78;26.14
34742;BME280;20968;42.696;23.360;2022-10-17T11:06:05;96672.44;;;23.25;26.63
34742;BME280;20968;42.696;23.360;2022-10-17T11:08:41;96669.53;;;23.07;26.72
34742;BME280;20968;42.696;23.360;2022-10-17T11:11:33;96659.44;;;23.22;26.92
34742;BME280;20968;42.696;23.360;2022-10-17T11:14:19;96672.47;;;23.73;26.59
34742;BME280;20968;42.696;23.360;2022-10-17T11:16:56;96678.59;;;23.24;26.63
34742;BME280;20968;42.696;23.360;2022-10-17T11:19:44;96665.25;;;23.53;25.26
34742;BME280;20968;42.696;23.360;2022-10-17T11:22:25;96656.88;;;23.72;25.72
34742;BME280;20968;42.696;23.360;2022-10-17T11:24:59;96654.66;;;23.89;26.94
34742;BME280;20968;42.696;23.360;2022-10-17T11:27:29;96650.66;;;23.55;25.75
34742;BME280;20968;42.696;23.360;2022-10-17T11:29:55;96657.31;;;23.57;24.90
34742;BME280;20968;42.696;23.360;2022-10-17T11:32:52;96660.03;;;23.63;26.17
34742;BME280;20968;42.696;23.360;2022-10-17T11:35:28;96651.25;;;23.96;26.76
34742;BME280;20968;42.696;23.360;2022-10-17T11:40:52;96643.25;;;24.00;25.11
34742;BME280;20968;42.696;23.360;2022-10-17T11:43:26;96643.13;;;24.29;25.92
34742;BME280;20968;42.696;23.360;2022-10-17T11:46:00;96651.63;;;24.05;25.71
34742;BME280;20968;42.696;23.360;2022-10-17T11:48:34;96647.28;;;24.04;25.85
34742;BME280;20968;42.696;23.360;2022-10-17T11:51:08;96636.81;;;24.23;26.18
34742;BME280;20968;42.696;23.360;2022-10-17T12:02:00;96635.84;;;23.78;25.01
34742;BME280;20968;42.696;23.360;2022-10-17T12:10:21;96631.44;;;23.59;24.23
34742;BME280;20968;42.696;23.360;2022-10-17T12:12:49;96626.47;;;23.47;24.90
34742;BME280;20968;42.696;23.360;2022-10-17T12:17:54;96625.16;;;23.24;25.81
34742;BME280;20968;42.696;23.360;2022-10-17T12:22:51;96614.28;;;23.39;25.01
34742;BME280;20968;42.696;23.360;2022-10-17T12:27:47;96618.06;;;23.17;25.12
34742;BME280;20968;42.696;23.360;2022-10-17T12:35:22;96606.25;;;22.95;25.27
34742;BME280;20968;42.696;23.360;2022-10-17T12:48:59;96597.91;;;23.61;24.83
34742;BME280;20968;42.696;23.360;2022-10-17T12:51:25;96606.81;;;23.65;25.99
34742;BME280;20968;42.696;23.360;2022-10-17T12:58:56;96609.06;;;23.48;26.85
34742;BME280;20968;42.696;23.360;2022-10-17T13:01:28;96601.22;;;23.41;28.10
34742;BME280;20968;42.696;23.360;2022-10-17T13:03:55;96596.53;;;23.67;28.42
34742;BME280;20968;42.696;23.360;2022-10-17T13:06:29;96597.53;;;23.94;27.44
34742;BME280;20968;42.696;23.360;2022-10-17T13:09:06;96602.94;;;24.10;28.41
34742;BME280;20968;42.696;23.360;2022-10-17T13:11:33;96602.94;;;23.92;28.57
34742;BME280;20968;42.696;23.360;2022-10-17T13:14:02;96602.53;;;24.01;27.69
34742;BME280;20968;42.696;23.360;2022-10-17T13:16:36;96595.84;;;24.04;27.84
34742;BME280;20968;42.696;23.360;2022-10-17T13:19:11;96603.09;;;23.99;28.07
34742;BME280;20968;42.696;23.360;2022-10-17T13:21:48;96599.91;;;24.08;27.41
34742;BME280;20968;42.696;23.360;2022-10-17T13:24:21;96603.69;;;24.11;27.00
34742;BME280;20968;42.696;23.360;2022-10-17T13:26:50;96598.66;;;24.04;26.94
34742;BME280;20968;42.696;23.360;2022-10-17T13:29:15;96603.47;;;24.09;27.27
34742;BME280;20968;42.696;23.360;2022-10-17T13:31:43;96597.69;;;24.01;27.47
34742;BME280;20968;42.696;23.360;2022-10-17T13:34:24;96596.22;;;23.95;27.32
34742;BME280;20968;42.696;23.360;2022-10-17T13:37:06;96604.06;;;23.83;27.46
34742;BME280;20968;42.696;23.360;2022-10-17T13:39:43;96600.59;;;23.72;27.72
34742;BME280;20968;42.696;23.360;2022-10-17T13:42:36;96609.69;;;23.59;27.82
34742;BME280;20968;42.696;23.360;2022-10-17T13:45:02;96601.94;;;23.65;27.95
34742;BME280;20968;42.696;23.360;2022-10-17T13:47:31;96605.66;;;23.55;28.49
34742;BME280;20968;42.696;23.360;2022-10-17T13:49:58;96600.34;;;23.70;28.84
34742;BME280;20968;42.696;23.360;2022-10-17T13:52:26;96599.56;;;23.75;28.13
34742;BME280;20968;42.696;23.360;2022-10-17T13:54:52;96598.91;;;23.63;28.72
34742;BME280;20968;42.696;23.360;2022-10-17T13:57:29;96601.84;;;23.76;28.81
34742;BME280;20968;42.696;23.360;2022-10-17T13:59:58;96599.66;;;23.64;28.41
34742;BME280;20968;42.696;23.360;2022-10-17T14:02:29;96602.34;;;23.33;29.12
34742;BME280;20968;42.696;23.360;2022-10-17T14:07:39;96601.50;;;23.38;30.15
34742;BME280;20968;42.696;23.360;2022-10-17T14:10:36;96606.97;;;23.30;30.16
34742;BME280;20968;42.696;23.360;2022-10-17T14:13:05;96605.94;;;23.28;30.41
34742;BME280;20968;42.696;23.360;2022-10-17T14:15:33;96600.34;;;23.04;30.51
34742;BME280;20968;42.696;23.360;2022-10-17T14:18:07;96605.97;;;22.98;30.87
34742;BME280;20968;42.696;23.360;2022-10-17T14:20:38;96611.22;;;22.83;30.70
34742;BME280;20968;42.696;23.360;2022-10-17T14:23:30;96614.81;;;22.78;31.17
34742;BME280;20968;42.696;23.360;2022-10-17T14:26:22;96615.91;;;22.70;31.46
34742;BME280;20968;42.696;23.360;2022-10-17T14:32:04;96605.81;;;22.16;32.00
34742;BME280;20968;42.696;23.360;2022-10-17T14:34:37;96610.59;;;21.81;32.13
34742;BME280;20968;42.696;23.360;2022-10-17T14:37:12;96612.28;;;22.00;33.16
34742;BME280;20968;42.696;23.360;2022-10-17T14:39:49;96610.59;;;21.81;33.04
34742;BME280;20968;42.696;23.360;2022-10-17T14:42:19;96603.00;;;21.70;33.85
34742;BME280;20968;42.696;23.360;2022-10-17T14:44:48;96605.84;;;21.48;33.02
34742;BME280;20968;42.696;23.360;2022-10-17T14:47:19;96620.66;;;21.38;33.75
34742;BME280;20968;42.696;23.360;2022-10-17T14:49:49;96621.97;;;21.26;33.77
34742;BME280;20968;42.696;23.360;2022-10-17T14:54:44;96626.09;;;20.98;34.94
34742;BME280;20968;42.696;23.360;2022-10-17T14:57:27;96631.44;;;20.96;35.31
34742;BME280;20968;42.696;23.360;2022-10-17T14:59:56;96619.44;;;20.68;35.35
34742;BME280;20968;42.696;23.360;2022-10-17T15:02:23;96624.28;;;20.40;35.96
34742;BME280;20968;42.696;23.360;2022-10-17T15:04:49;96622.69;;;20.06;36.19
34742;BME280;20968;42.696;23.360;2022-10-17T15:07:15;96618.81;;;19.87;36.79
34742;BME280;20968;42.696;23.360;2022-10-17T15:09:43;96619.50;;;19.71;37.01